Nambouwalu, Fiji
Current Conditions -  °F | °C
As of 7:00 AM on Friday 19 Dec 2014 (Local Time) from NFNA Reporting Station
Broken Clouds Broken Clouds  
Wind Chill: 27°   Ceiling: 2000
Heat Index: 31°   Visibility: 6mi
Dew Point: 25°   Wind: 6mph
Humidity: 89%   Direction: 80°E
Pressure: 29.85"   Gusts: NA
Location:  16.99°S, 178.69°E
Report Text: NFNA 181900Z 08005KT 9999 BKN020 BKN045 27/25 Q1011
Loading
Personal Weather Stations






























Interactive Weather Map New forecast layout! Learn more

10-Day Weather Forecast

Advertisements
Track Severe Weather on mobile